Time;durP1;ratioP1;P1;durP2;ratioP2;P2;SDS_P1;SDS_P2;PMS_P1;PMS_P2;Temp;Humidity;BMP_temperature;BMP_pressure;BME280_temperature;BME280_humidity;BME280_pressure;Samples;Min_cycle;Max_cycle;Signal;HPM_P1;HPM_P2
2021/10/30 00:01:32;;;;;;;5.22;3.83;;;;;;;10.96;82.01;100296.50;4930408;29;20044;-54
2021/10/30 00:03:59;;;;;;;5.85;4.10;;;;;;;10.99;82.05;100298.19;4914091;29;20039;-59
2021/10/30 00:06:25;;;;;;;4.95;3.50;;;;;;;11.01;81.47;100301.59;4930794;29;20043;-56
2021/10/30 00:08:51;;;;;;;3.42;2.38;;;;;;;10.95;81.63;100307.81;4913836;29;20424;-55
2021/10/30 00:11:17;;;;;;;5.30;3.53;;;;;;;10.87;81.26;100307.16;4930233;29;20044;-53
2021/10/30 00:13:43;;;;;;;6.53;3.95;;;;;;;10.84;81.19;100308.97;4932050;29;20052;-56
2021/10/30 00:16:09;;;;;;;6.50;3.83;;;;;;;10.82;81.12;100300.38;4932774;29;20075;-56
2021/10/30 00:18:35;;;;;;;6.85;3.13;;;;;;;10.75;81.04;100291.00;4916194;29;20040;-56
2021/10/30 00:21:00;;;;;;;10.13;4.78;;;;;;;10.72;81.79;100294.53;4932307;29;20626;-55
2021/10/30 00:23:26;;;;;;;6.35;4.07;;;;;;;10.77;81.43;100299.63;4931376;29;20128;-52
2021/10/30 00:25:52;;;;;;;5.20;3.45;;;;;;;10.77;81.62;100312.63;4930919;29;20106;-57
2021/10/30 00:28:18;;;;;;;6.50;4.40;;;;;;;10.73;81.55;100301.44;4932479;29;20043;-59
2021/10/30 00:30:44;;;;;;;4.07;2.72;;;;;;;10.75;81.26;100286.66;4932063;29;20058;-54
2021/10/30 00:33:10;;;;;;;6.20;3.67;;;;;;;10.77;81.17;100299.63;4931062;29;20040;-51
2021/10/30 00:35:36;;;;;;;4.90;3.53;;;;;;;10.78;81.15;100299.56;4932204;29;20040;-57
2021/10/30 00:38:02;;;;;;;6.20;4.07;;;;;;;10.75;80.63;100293.59;4932643;29;20043;-54
2021/10/30 00:40:28;;;;;;;4.07;2.70;;;;;;;10.76;80.85;100313.53;4930215;29;20048;-56
2021/10/30 00:42:54;;;;;;;5.63;3.90;;;;;;;10.79;80.54;100295.22;4930745;29;20043;-55
2021/10/30 00:45:20;;;;;;;6.88;3.83;;;;;;;10.82;80.69;100305.56;4913984;29;20063;-58
2021/10/30 00:47:46;;;;;;;6.00;3.55;;;;;;;10.84;80.71;100307.22;4932815;29;20040;-52
2021/10/30 00:50:12;;;;;;;6.47;3.60;;;;;;;10.80;80.09;100303.00;4931371;29;20431;-54
2021/10/30 00:52:39;;;;;;;5.15;3.60;;;;;;;10.79;79.84;100316.88;4931416;29;20367;-55
2021/10/30 00:55:09;;;;;;;6.20;4.28;;;;;;;10.80;79.89;100313.41;4931678;29;20043;-57
2021/10/30 00:57:37;;;;;;;5.40;4.03;;;;;;;10.85;79.63;100303.72;4913178;29;20201;-56
2021/10/30 01:00:04;;;;;;;8.63;4.50;;;;;;;10.90;79.48;100301.88;4914642;29;20059;-53
2021/10/30 01:02:30;;;;;;;7.68;4.10;;;;;;;10.92;79.32;100294.88;4913357;29;20398;-57
2021/10/30 01:04:56;;;;;;;5.85;3.30;;;;;;;10.97;78.54;100306.03;4914176;29;20074;-55
2021/10/30 01:07:22;;;;;;;4.63;3.22;;;;;;;10.97;78.56;100319.03;4932120;29;20090;-56
2021/10/30 01:09:51;;;;;;;5.55;4.07;;;;;;;10.92;79.05;100310.50;4932152;29;20719;-52
2021/10/30 01:12:18;;;;;;;5.60;3.15;;;;;;;10.92;78.76;100301.84;4912166;29;20051;-57
2021/10/30 01:14:44;;;;;;;6.90;3.83;;;;;;;11.03;78.88;100305.88;4931576;29;20035;-56
2021/10/30 01:17:09;;;;;;;3.63;2.50;;;;;;;10.97;78.43;100306.03;4912115;29;20050;-55
2021/10/30 01:19:37;;;;;;;6.15;3.03;;;;;;;10.90;78.43;100288.84;4925545;29;20584;-53
2021/10/30 01:22:04;;;;;;;5.00;3.47;;;;;;;10.98;78.80;100299.94;4913838;29;20130;-57
2021/10/30 01:24:30;;;;;;;5.05;3.97;;;;;;;11.04;78.54;100311.94;4930566;29;20098;-53
2021/10/30 01:26:55;;;;;;;6.15;3.63;;;;;;;11.04;78.22;100301.53;4912240;29;20540;-56
2021/10/30 01:29:22;;;;;;;6.15;3.60;;;;;;;11.08;78.34;100310.94;4929273;29;20050;-56
2021/10/30 01:31:49;;;;;;;2.67;1.95;;;;;;;10.99;77.88;100301.63;4913177;29;20058;-54
2021/10/30 01:34:15;;;;;;;6.53;3.40;;;;;;;11.05;78.32;100301.47;4927153;29;20043;-56
2021/10/30 01:36:41;;;;;;;6.40;3.80;;;;;;;11.06;78.11;100312.72;4897400;29;20052;-58
2021/10/30 01:39:09;;;;;;;6.30;3.45;;;;;;;11.11;78.08;100317.81;4931020;29;20047;-57
2021/10/30 01:41:35;;;;;;;4.95;3.67;;;;;;;11.09;78.16;100317.00;4932250;29;20043;-56
2021/10/30 01:44:01;;;;;;;4.88;3.05;;;;;;;11.13;77.76;100316.03;4931776;29;20154;-55
2021/10/30 01:46:28;;;;;;;5.03;2.97;;;;;;;11.10;77.94;100313.50;4932689;29;20052;-55
2021/10/30 01:48:54;;;;;;;16.17;3.10;;;;;;;11.08;77.84;100307.50;4905114;29;20508;-56
2021/10/30 01:51:21;;;;;;;6.53;3.88;;;;;;;11.11;77.71;100321.28;4895344;29;20138;-53
2021/10/30 01:53:47;;;;;;;5.40;3.78;;;;;;;11.14;77.76;100330.75;4912736;29;20068;-56
2021/10/30 01:56:13;;;;;;;6.15;3.63;;;;;;;11.12;77.87;100333.38;4928373;29;20054;-57
2021/10/30 01:58:39;;;;;;;6.13;3.45;;;;;;;11.13;77.67;100329.03;4914490;29;20421;-57
2021/10/30 02:01:07;;;;;;;5.38;3.63;;;;;;;11.14;77.58;100328.16;4928855;29;20039;-54
2021/10/30 02:03:34;;;;;;;4.07;3.50;;;;;;;11.15;77.42;100319.47;4927862;29;20476;-54
2021/10/30 02:06:01;;;;;;;5.28;3.15;;;;;;;11.17;77.63;100336.72;4931418;29;20429;-56
2021/10/30 02:08:29;;;;;;;5.72;3.70;;;;;;;11.07;77.46;100321.41;4929508;29;20042;-54
2021/10/30 02:10:58;;;;;;;4.65;3.08;;;;;;;11.08;77.24;100321.34;4935108;29;20079;-54
2021/10/30 02:13:24;;;;;;;5.15;3.58;;;;;;;11.15;76.92;100330.69;4914593;29;20043;-57
2021/10/30 02:15:52;;;;;;;6.07;3.63;;;;;;;11.19;76.98;100336.69;4900152;29;20051;-53
2021/10/30 02:18:18;;;;;;;5.55;3.47;;;;;;;11.21;76.94;100324.47;4935182;29;20050;-54
2021/10/30 02:20:45;;;;;;;5.38;3.40;;;;;;;11.32;77.09;100333.72;4934565;29;20508;-55
2021/10/30 02:23:12;;;;;;;6.57;3.65;;;;;;;11.29;76.56;100330.34;4933469;29;20571;-57
2021/10/30 02:25:38;;;;;;;5.20;2.67;;;;;;;11.22;77.11;100332.25;4935707;29;20044;-56
2021/10/30 02:28:04;;;;;;;5.68;3.50;;;;;;;11.20;77.12;100339.22;4933984;29;20875;-56
2021/10/30 02:30:30;;;;;;;4.72;3.47;;;;;;;11.17;76.99;100333.25;4933609;29;20643;-55
2021/10/30 02:32:56;;;;;;;6.57;3.35;;;;;;;11.28;76.88;100354.66;4916767;29;20424;-54
2021/10/30 02:35:21;;;;;;;5.07;3.17;;;;;;;11.23;76.92;100352.19;4916810;29;20055;-56
2021/10/30 02:37:48;;;;;;;5.32;3.42;;;;;;;11.19;76.62;100357.53;4933251;29;20074;-57
2021/10/30 02:40:15;;;;;;;4.57;3.00;;;;;;;11.09;77.12;100333.47;4934518;29;20055;-55
2021/10/30 02:42:40;;;;;;;3.05;2.65;;;;;;;11.17;76.74;100349.75;4933300;29;20043;-55
2021/10/30 02:45:07;;;;;;;5.55;3.28;;;;;;;11.16;76.98;100360.19;4935419;29;20039;-57
2021/10/30 02:47:33;;;;;;;6.03;3.25;;;;;;;11.17;76.69;100354.09;4934960;29;20054;-56
2021/10/30 02:49:59;;;;;;;4.55;3.20;;;;;;;11.18;77.16;100359.25;4935033;29;20043;-55
2021/10/30 02:52:25;;;;;;;7.40;3.55;;;;;;;11.28;76.72;100355.53;4933502;29;20059;-57
2021/10/30 02:54:52;;;;;;;4.75;3.10;;;;;;;11.31;76.19;100352.81;4917375;29;20198;-55
2021/10/30 02:57:18;;;;;;;4.25;3.15;;;;;;;11.28;76.09;100352.91;4934360;29;20062;-58
2021/10/30 02:59:46;;;;;;;4.15;3.00;;;;;;;11.29;76.47;100358.97;4935966;29;20102;-56
2021/10/30 03:02:13;;;;;;;4.78;3.53;;;;;;;11.26;76.08;100354.69;4916725;29;21622;-57
2021/10/30 03:04:39;;;;;;;4.60;3.10;;;;;;;11.30;76.08;100360.69;4933659;29;20047;-57
2021/10/30 03:07:05;;;;;;;4.88;3.53;;;;;;;11.27;76.22;100343.41;4934314;29;20044;-57
2021/10/30 03:09:30;;;;;;;5.90;3.55;;;;;;;11.40;75.78;100352.59;4934282;29;20051;-55
2021/10/30 03:11:57;;;;;;;5.82;3.65;;;;;;;11.42;75.70;100356.00;4931570;29;20047;-57
2021/10/30 03:14:23;;;;;;;6.18;3.80;;;;;;;11.42;75.22;100348.19;4934214;29;20078;-59
2021/10/30 03:16:48;;;;;;;3.95;3.13;;;;;;;11.55;75.29;100351.31;4934110;29;20071;-59
2021/10/30 03:19:14;;;;;;;4.72;3.08;;;;;;;11.57;74.73;100361.69;4929094;29;20043;-54
2021/10/30 03:21:40;;;;;;;4.40;3.58;;;;;;;11.54;74.84;100351.34;4931431;29;20051;-53
2021/10/30 03:24:06;;;;;;;4.60;2.90;;;;;;;11.59;74.61;100358.16;4930850;29;20123;-54
2021/10/30 03:26:32;;;;;;;6.72;3.55;;;;;;;11.52;74.87;100350.53;4934325;29;20047;-53
2021/10/30 03:28:58;;;;;;;4.65;3.17;;;;;;;11.52;74.97;100348.78;4930124;29;20043;-58
2021/10/30 03:31:24;;;;;;;6.32;3.38;;;;;;;11.53;74.97;100345.28;4933205;29;20047;-56
2021/10/30 03:33:50;;;;;;;5.03;3.53;;;;;;;11.51;74.91;100341.88;4932620;29;20446;-55
2021/10/30 03:36:16;;;;;;;6.22;3.92;;;;;;;11.54;74.68;100346.16;4933843;29;20043;-58
2021/10/30 03:38:42;;;;;;;4.50;3.70;;;;;;;11.46;74.92;100344.59;4930736;29;20054;-59
2021/10/30 03:41:12;;;;;;;6.43;3.42;;;;;;;11.39;75.10;100335.25;4929998;29;20047;-59
2021/10/30 03:43:38;;;;;;;5.60;3.40;;;;;;;11.49;74.73;100351.47;4913839;29;20095;-55
2021/10/30 03:46:04;;;;;;;6.60;3.60;;;;;;;11.54;74.94;100349.59;4931576;29;20043;-55
2021/10/30 03:48:30;;;;;;;5.57;3.72;;;;;;;11.60;74.72;100341.63;4913022;29;20044;-55
2021/10/30 03:50:56;;;;;;;4.70;3.55;;;;;;;11.60;74.63;100339.03;4930925;29;20042;-56
2021/10/30 03:53:22;;;;;;;6.68;3.40;;;;;;;11.63;74.38;100341.53;4923835;29;20064;-54
2021/10/30 03:55:48;;;;;;;7.93;3.65;;;;;;;11.55;74.67;100345.25;4924493;29;20048;-58
2021/10/30 03:58:14;;;;;;;5.88;3.53;;;;;;;11.37;75.11;100321.41;4929102;29;20048;-56
2021/10/30 04:00:40;;;;;;;5.10;3.40;;;;;;;11.38;75.37;100327.50;4906158;29;20035;-54
2021/10/30 04:03:06;;;;;;;7.65;4.22;;;;;;;11.28;75.98;100323.44;4929773;29;20504;-54
2021/10/30 04:05:32;;;;;;;10.27;3.72;;;;;;;11.32;76.21;100336.31;4905257;29;20183;-59
2021/10/30 04:07:58;;;;;;;3.95;3.15;;;;;;;11.25;76.38;100320.91;4925342;29;20379;-58
2021/10/30 04:10:24;;;;;;;3.83;3.00;;;;;;;11.24;76.76;100319.22;4919871;29;20043;-56
2021/10/30 04:12:50;;;;;;;6.50;4.20;;;;;;;11.18;77.09;100314.16;4922266;29;20047;-53
2021/10/30 04:15:16;;;;;;;8.13;4.10;;;;;;;11.12;77.50;100317.78;4912429;29;20040;-54
2021/10/30 04:17:42;;;;;;;8.98;4.20;;;;;;;11.05;77.59;100319.69;4921360;29;20110;-50
2021/10/30 04:20:08;;;;;;;6.78;4.18;;;;;;;11.02;77.62;100322.38;4902617;29;20052;-51
2021/10/30 04:22:34;;;;;;;6.95;3.47;;;;;;;11.02;77.74;100321.50;4916400;29;20046;-53
2021/10/30 04:25:00;;;;;;;7.25;3.65;;;;;;;11.00;78.18;100318.94;4914696;29;20110;-55
2021/10/30 04:27:27;;;;;;;8.55;4.00;;;;;;;11.03;78.42;100323.22;4911191;29;20531;-59
2021/10/30 04:29:53;;;;;;;7.30;4.10;;;;;;;10.99;78.13;100317.22;4927941;29;20164;-55
2021/10/30 04:32:19;;;;;;;7.22;3.97;;;;;;;10.90;78.67;100317.47;4925087;29;20554;-55
2021/10/30 04:34:58;;;;;;;6.43;3.97;;;;;;;10.83;79.09;100335.91;4920912;29;20047;-53
2021/10/30 04:37:24;;;;;;;6.93;3.65;;;;;;;10.76;79.35;100329.97;4916566;29;20099;-56
2021/10/30 04:39:52;;;;;;;5.53;3.70;;;;;;;10.71;79.57;100337.03;4930987;29;20068;-56
2021/10/30 04:42:19;;;;;;;5.60;3.75;;;;;;;10.51;80.18;100310.66;4932061;29;20047;-58
2021/10/30 04:44:45;;;;;;;6.25;3.58;;;;;;;10.64;80.92;100345.88;4915730;29;20063;-60
2021/10/30 04:47:13;;;;;;;6.93;3.65;;;;;;;10.61;80.79;100335.56;4914235;29;20051;-60
2021/10/30 04:49:39;;;;;;;7.05;3.72;;;;;;;10.60;80.77;100332.09;4926382;29;20524;-59
2021/10/30 04:52:07;;;;;;;7.03;3.88;;;;;;;10.59;81.02;100330.38;4915910;29;20433;-59
2021/10/30 04:54:34;;;;;;;5.65;3.80;;;;;;;10.58;81.30;100330.41;4932824;29;20047;-60
2021/10/30 04:56:59;;;;;;;6.63;3.75;;;;;;;10.59;81.21;100334.72;4900892;29;20040;-60
2021/10/30 04:59:25;;;;;;;6.75;4.35;;;;;;;10.52;81.55;100315.81;4915458;29;20047;-60
2021/10/30 05:01:52;;;;;;;5.38;3.90;;;;;;;10.59;81.97;100326.94;4932768;29;20046;-60
2021/10/30 05:04:17;;;;;;;7.57;4.28;;;;;;;10.55;81.86;100315.75;4915108;29;20478;-60
2021/10/30 05:06:43;;;;;;;6.72;4.20;;;;;;;10.68;81.14;100337.09;4929733;29;20066;-59
2021/10/30 05:09:09;;;;;;;6.13;4.18;;;;;;;10.81;80.83;100327.25;4931148;29;20428;-59
2021/10/30 05:11:35;;;;;;;8.23;4.25;;;;;;;10.90;80.22;100325.28;4932763;29;20035;-58
2021/10/30 05:14:02;;;;;;;8.05;4.40;;;;;;;10.83;79.84;100304.69;4929037;29;20191;-59
2021/10/30 05:16:27;;;;;;;8.32;4.60;;;;;;;11.07;79.42;100330.06;4931876;29;20110;-58
2021/10/30 05:18:54;;;;;;;7.28;3.95;;;;;;;11.20;78.65;100331.44;4931646;29;20126;-59
2021/10/30 05:21:19;;;;;;;5.68;3.63;;;;;;;11.26;77.80;100314.78;4932454;29;20120;-58
2021/10/30 05:23:45;;;;;;;7.50;3.67;;;;;;;11.42;77.06;100344.72;4915056;29;20531;-60
2021/10/30 05:26:11;;;;;;;4.38;3.33;;;;;;;11.39;77.51;100337.00;4915628;29;20091;-60
2021/10/30 05:28:37;;;;;;;6.70;4.00;;;;;;;11.61;76.50;100332.06;4932069;29;20039;-57
2021/10/30 05:31:03;;;;;;;7.38;4.10;;;;;;;11.92;75.20;100335.53;4932140;29;20047;-59
2021/10/30 05:33:30;;;;;;;8.32;4.00;;;;;;;12.13;73.75;100326.22;4915201;29;20141;-61
2021/10/30 05:35:55;;;;;;;4.55;2.63;;;;;;;12.38;72.34;100324.56;4931653;29;20047;-60
2021/10/30 05:38:44;;;;;;;7.50;4.05;;;;;;;12.61;71.42;100340.31;4915345;29;20043;-60
2021/10/30 05:41:12;;;;;;;7.10;3.42;;;;;;;12.84;70.35;100343.94;4932480;29;20050;-61
2021/10/30 05:43:39;;;;;;;8.27;3.42;;;;;;;13.06;69.20;100343.19;4932341;29;20131;-61
2021/10/30 05:46:06;;;;;;;4.47;3.30;;;;;;;13.37;68.10;100342.13;4919998;29;20408;-60
2021/10/30 05:48:34;;;;;;;8.77;3.38;;;;;;;13.51;67.45;100338.13;4955543;29;20039;-58
2021/10/30 05:51:00;;;;;;;6.45;4.32;;;;;;;13.88;66.33;100353.31;4949290;29;20059;-59
2021/10/30 05:53:25;;;;;;;7.50;3.92;;;;;;;14.15;65.20;100353.19;4935650;29;20055;-62
2021/10/30 05:55:51;;;;;;;6.85;4.10;;;;;;;14.36;64.46;100344.50;4935776;29;20047;-61
2021/10/30 05:58:17;;;;;;;8.90;3.83;;;;;;;14.70;62.88;100344.06;4926431;29;20044;-60
2021/10/30 06:00:43;;;;;;;4.95;3.92;;;;;;;15.06;61.91;100350.41;4936092;29;20211;-60
2021/10/30 06:03:09;;;;;;;5.43;4.00;;;;;;;15.27;60.92;100346.03;4934745;29;20036;-60
2021/10/30 06:05:35;;;;;;;4.85;2.88;;;;;;;15.36;60.14;100353.47;4935649;29;20044;-59
2021/10/30 06:08:01;;;;;;;3.90;3.17;;;;;;;15.36;59.89;100334.28;4935930;29;20055;-60
2021/10/30 06:10:30;;;;;;;4.63;3.63;;;;;;;15.51;59.53;100336.22;4936110;29;20046;-62
2021/10/30 06:12:56;;;;;;;5.78;3.58;;;;;;;15.94;58.42;100336.03;4935552;29;20044;-60
2021/10/30 06:15:22;;;;;;;10.02;4.22;;;;;;;16.38;57.45;100341.81;4934438;29;20042;-60
2021/10/30 06:17:48;;;;;;;7.40;3.75;;;;;;;16.65;55.91;100326.53;4917877;29;20054;-60
2021/10/30 06:20:14;;;;;;;7.38;3.63;;;;;;;16.70;55.82;100347.31;4933561;29;20495;-60
2021/10/30 06:22:43;;;;;;;6.93;3.88;;;;;;;16.80;55.33;100351.22;4932717;29;20483;-59
2021/10/30 06:25:14;;;;;;;4.75;3.38;;;;;;;16.98;54.92;100339.78;4934460;29;20032;-60
2021/10/30 06:27:40;;;;;;;4.50;3.63;;;;;;;17.09;54.38;100342.72;4933796;29;20431;-59
2021/10/30 06:30:07;;;;;;;7.10;3.85;;;;;;;17.26;53.97;100355.03;4933904;29;20542;-60
2021/10/30 06:32:36;;;;;;;8.00;3.53;;;;;;;17.14;54.06;100338.09;4933163;29;20039;-62
2021/10/30 06:35:02;;;;;;;6.03;4.15;;;;;;;17.14;54.19;100345.13;4935641;29;20051;-60
2021/10/30 06:37:29;;;;;;;7.88;4.72;;;;;;;17.20;53.90;100326.41;4935964;29;20054;-60
2021/10/30 06:39:54;;;;;;;4.97;4.05;;;;;;;17.35;53.83;100339.63;4918818;29;20134;-62
2021/10/30 06:42:20;;;;;;;6.65;4.47;;;;;;;17.89;52.59;100361.34;4935403;29;20078;-61
2021/10/30 06:44:48;;;;;;;5.25;4.57;;;;;;;17.62;53.14;100347.03;4935606;29;20044;-64
2021/10/30 06:47:14;;;;;;;5.95;4.40;;;;;;;18.03;52.21;100353.56;4917476;29;20047;-54
2021/10/30 06:49:41;;;;;;;7.13;4.10;;;;;;;18.15;51.45;100360.78;4933671;29;20046;-58
2021/10/30 06:52:09;;;;;;;5.72;4.50;;;;;;;18.36;51.17;100368.44;4917649;29;20062;-56
2021/10/30 06:54:35;;;;;;;7.60;4.90;;;;;;;17.90;52.03;100360.41;4917356;29;20044;-55
2021/10/30 06:57:01;;;;;;;8.25;4.38;;;;;;;17.05;54.02;100349.06;4930981;29;20043;-60
2021/10/30 06:59:28;;;;;;;12.90;4.88;;;;;;;16.68;55.15;100355.28;4933364;29;20420;-60
2021/10/30 07:01:54;;;;;;;7.50;4.93;;;;;;;16.41;56.00;100356.56;4934652;29;20043;-58
2021/10/30 07:04:20;;;;;;;7.05;4.80;;;;;;;15.88;57.59;100341.56;4931715;29;20043;-59
2021/10/30 07:06:46;;;;;;;6.68;3.65;;;;;;;15.67;58.52;100343.38;4912461;29;20167;-58
2021/10/30 07:09:12;;;;;;;7.95;5.43;;;;;;;16.02;57.98;100354.88;4909685;29;20039;-58
2021/10/30 07:11:40;;;;;;;9.07;5.00;;;;;;;16.82;55.85;100354.59;4919985;29;20040;-57
2021/10/30 07:14:06;;;;;;;8.98;4.35;;;;;;;17.41;53.76;100345.50;4922342;29;20047;-59
2021/10/30 07:16:32;;;;;;;6.22;4.72;;;;;;;17.53;53.63;100371.16;4933414;29;20431;-59
2021/10/30 07:18:58;;;;;;;6.93;5.07;;;;;;;16.98;54.65;100357.31;4930494;29;20056;-59
2021/10/30 07:21:24;;;;;;;6.97;4.63;;;;;;;16.74;55.55;100375.16;4933805;29;20128;-56
2021/10/30 07:23:50;;;;;;;5.97;4.65;;;;;;;17.01;54.61;100363.25;4933563;29;20132;-58
2021/10/30 07:26:16;;;;;;;5.97;4.38;;;;;;;16.48;56.14;100371.97;4917001;29;20043;-59
2021/10/30 07:28:41;;;;;;;6.97;4.68;;;;;;;16.51;56.20;100363.09;4917006;29;20107;-58
2021/10/30 07:31:07;;;;;;;7.05;4.47;;;;;;;16.47;56.11;100366.78;4933722;29;20099;-59
2021/10/30 07:33:33;;;;;;;7.25;5.10;;;;;;;15.94;57.64;100364.03;4933436;29;20090;-57
2021/10/30 07:35:59;;;;;;;11.43;5.60;;;;;;;16.70;55.76;100360.44;4934026;29;20512;-59
2021/10/30 07:38:25;;;;;;;6.95;5.50;;;;;;;16.59;56.11;100371.47;4917024;29;20058;-58
2021/10/30 07:40:51;;;;;;;8.90;4.75;;;;;;;16.96;55.09;100359.19;4913029;29;20051;-55
2021/10/30 07:43:17;;;;;;;7.47;4.85;;;;;;;16.38;56.26;100375.13;4916750;29;20131;-60
2021/10/30 07:45:43;;;;;;;11.57;5.78;;;;;;;16.17;57.06;100358.59;4929332;29;20131;-61
2021/10/30 07:48:09;;;;;;;8.93;5.13;;;;;;;15.93;57.88;100373.66;4926789;29;20040;-48
2021/10/30 07:50:35;;;;;;;6.68;4.75;;;;;;;15.34;59.52;100391.97;4915205;29;20051;-58
2021/10/30 07:53:02;;;;;;;6.43;4.88;;;;;;;15.03;60.95;100375.84;4918390;29;20063;-59
2021/10/30 07:55:28;;;;;;;9.30;5.78;;;;;;;15.07;61.06;100375.66;4933449;29;20040;-59
2021/10/30 07:57:54;;;;;;;8.38;5.20;;;;;;;14.86;61.54;100392.28;4933080;29;20151;-60
2021/10/30 08:00:20;;;;;;;7.95;5.68;;;;;;;14.77;62.18;100371.69;4933900;29;20539;-52
2021/10/30 08:02:48;;;;;;;8.25;5.30;;;;;;;15.18;60.99;100383.06;4933970;29;20849;-56
2021/10/30 08:05:15;;;;;;;9.20;5.95;;;;;;;15.24;60.58;100370.56;4933481;29;20075;-55
2021/10/30 08:07:45;;;;;;;7.78;5.28;;;;;;;15.24;60.68;100382.81;4900226;29;20042;-61
2021/10/30 08:10:11;;;;;;;8.15;5.32;;;;;;;15.23;60.59;100397.66;4901267;29;20050;-58
2021/10/30 08:12:38;;;;;;;9.00;5.60;;;;;;;15.31;60.76;100397.38;4894433;29;20497;-57
2021/10/30 08:15:05;;;;;;;10.52;5.95;;;;;;;15.39;60.09;100379.53;4897859;29;20551;-57
2021/10/30 08:17:31;;;;;;;12.20;6.63;;;;;;;15.17;60.99;100387.47;4933519;29;20266;-59
2021/10/30 08:19:58;;;;;;;7.85;5.68;;;;;;;15.11;60.88;100374.63;4932891;29;20538;-56
2021/10/30 08:22:24;;;;;;;9.95;5.82;;;;;;;15.46;60.56;100383.59;4929755;29;20110;-57
2021/10/30 08:24:50;;;;;;;8.75;6.20;;;;;;;15.74;59.40;100382.44;4933966;29;20464;-59
2021/10/30 08:27:16;;;;;;;11.45;6.03;;;;;;;16.40;57.94;100386.38;4933876;29;20048;-58
2021/10/30 08:29:42;;;;;;;8.73;5.63;;;;;;;16.89;56.47;100379.66;4885235;29;20051;-58
2021/10/30 08:32:10;;;;;;;9.32;5.40;;;;;;;17.40;54.55;100377.97;4932578;29;20043;-56
2021/10/30 08:34:36;;;;;;;10.07;5.88;;;;;;;17.56;54.06;100389.38;4931740;29;20062;-60
2021/10/30 08:37:02;;;;;;;9.15;6.13;;;;;;;17.29;54.68;100389.00;4915818;29;20122;-56
2021/10/30 08:39:28;;;;;;;8.88;5.70;;;;;;;16.46;56.44;100389.56;4932040;29;20047;-58
2021/10/30 08:41:54;;;;;;;10.35;6.47;;;;;;;16.45;56.49;100394.88;4915258;29;20042;-57
2021/10/30 08:44:20;;;;;;;9.93;6.47;;;;;;;16.78;56.24;100389.84;4915802;29;20515;-58
2021/10/30 08:46:49;;;;;;;11.20;6.10;;;;;;;17.06;55.08;100382.28;4932632;29;20044;-57
2021/10/30 08:49:16;;;;;;;;;;;;;;;16.82;55.38;100386.13;4930375;29;20070;-59
2021/10/30 08:51:42;;;;;;;12.75;6.85;;;;;;;16.53;56.65;100405.88;4932767;29;20037;-57
2021/10/30 08:54:10;;;;;;;10.63;5.75;;;;;;;16.43;56.70;100397.56;4931764;29;20059;-58
2021/10/30 08:56:38;;;;;;;8.32;5.95;;;;;;;16.04;57.49;100384.53;4914729;29;20043;-58
2021/10/30 08:59:08;;;;;;;10.93;6.25;;;;;;;16.47;56.83;100391.28;4914706;29;20050;-58
2021/10/30 09:01:48;;;;;;;7.80;5.65;;;;;;;16.76;56.04;100399.53;4914802;29;21068;-59
2021/10/30 09:04:15;;;;;;;10.13;5.90;;;;;;;16.92;55.18;100388.22;4929814;29;20042;-59
2021/10/30 09:07:00;;;;;;;7.22;5.90;;;;;;;16.71;55.75;100412.91;4914987;29;20074;-59
2021/10/30 09:09:28;;;;;;;8.32;5.13;;;;;;;16.57;56.19;100406.56;4914435;29;20046;-58
2021/10/30 09:12:01;;;;;;;7.35;4.40;;;;;;;15.89;57.73;100385.22;4929886;29;20078;-60
2021/10/30 09:14:28;;;;;;;11.35;6.25;;;;;;;16.45;56.78;100395.72;4931814;29;20043;-59
2021/10/30 09:17:18;;;;;;;8.30;5.63;;;;;;;17.27;54.47;100383.81;4929876;29;20043;-57
2021/10/30 09:19:49;;;;;;;8.15;5.80;;;;;;;17.58;53.50;100379.66;4913540;29;20130;-61
2021/10/30 09:22:16;;;;;;;8.23;6.13;;;;;;;17.40;53.79;100384.06;4929354;29;20625;-59
2021/10/30 09:25:01;;;;;;;8.18;5.00;;;;;;;17.79;52.44;100400.44;4931637;29;20047;-61
2021/10/30 09:27:52;;;;;;;9.13;5.60;;;;;;;18.45;51.40;100376.66;4915147;29;20043;-61
2021/10/30 09:30:26;;;;;;;8.50;5.97;;;;;;;19.04;49.53;100380.38;4912512;29;20060;-58
2021/10/30 09:33:01;;;;;;;6.28;5.20;;;;;;;19.20;48.57;100373.25;4914722;29;20040;-59
2021/10/30 09:35:32;;;;;;;5.50;3.85;;;;;;;17.90;51.08;100385.88;4914675;29;20079;-61
2021/10/30 09:37:58;;;;;;;6.78;4.85;;;;;;;16.79;53.50;100376.63;4929559;29;20043;-59
2021/10/30 09:40:32;;;;;;;6.32;4.75;;;;;;;16.06;56.16;100381.84;4914948;29;20040;-58
2021/10/30 09:43:13;;;;;;;9.85;5.97;;;;;;;15.69;57.59;100377.41;4913571;29;20060;-59
2021/10/30 09:45:47;;;;;;;8.07;5.68;;;;;;;15.38;58.20;100377.00;4931119;29;20519;-59
2021/10/30 09:48:15;;;;;;;8.85;5.97;;;;;;;15.09;59.20;100386.94;4930660;29;20512;-59
2021/10/30 09:50:42;;;;;;;7.72;5.45;;;;;;;14.78;60.25;100366.38;4931045;29;20048;-56
2021/10/30 09:53:33;;;;;;;13.75;6.10;;;;;;;14.69;61.05;100366.78;4931503;29;20070;-56
2021/10/30 09:56:05;;;;;;;10.07;6.38;;;;;;;14.63;61.24;100376.63;4929555;29;20047;-59
2021/10/30 09:58:33;;;;;;;9.43;5.53;;;;;;;14.46;61.71;100382.50;4931642;29;20054;-58
2021/10/30 10:01:13;;;;;;;8.07;5.80;;;;;;;14.46;62.11;100365.97;4914581;29;20126;-60
2021/10/30 10:03:50;;;;;;;9.27;5.78;;;;;;;14.40;61.87;100374.91;4913369;29;20424;-58
2021/10/30 10:06:22;;;;;;;7.15;5.45;;;;;;;14.40;61.87;100357.44;4926867;29;20071;-60
2021/10/30 10:08:48;;;;;;;9.80;5.53;;;;;;;14.44;61.84;100371.28;4931448;29;20476;-60
2021/10/30 10:11:16;;;;;;;10.32;4.68;;;;;;;14.33;62.22;100373.44;4931394;29;20042;-59
2021/10/30 10:13:50;;;;;;;7.20;4.43;;;;;;;14.25;62.72;100391.16;4914839;29;20039;-59
2021/10/30 10:16:20;;;;;;;8.60;6.30;;;;;;;14.06;63.11;100371.84;4931349;29;20463;-60
2021/10/30 10:18:53;;;;;;;7.72;4.50;;;;;;;14.06;62.99;100362.25;4931135;29;20040;-57
2021/10/30 10:21:22;;;;;;;9.30;6.20;;;;;;;14.12;63.13;100376.84;4931253;29;20050;-58
2021/10/30 10:23:48;;;;;;;9.23;5.20;;;;;;;14.36;62.34;100384.66;4914354;29;20460;-56
2021/10/30 10:26:14;;;;;;;8.57;5.85;;;;;;;15.59;59.14;100369.09;4931173;29;20415;-58
2021/10/30 10:28:40;;;;;;;8.95;5.00;;;;;;;16.94;54.59;100378.50;4931926;29;20573;-58
2021/10/30 10:31:22;;;;;;;12.25;5.60;;;;;;;18.06;51.43;100376.22;4933678;29;20516;-59
2021/10/30 10:34:11;;;;;;;9.85;5.25;;;;;;;18.58;49.48;100375.06;4932949;29;20043;-58
2021/10/30 10:36:37;;;;;;;;;;;;;;;19.11;48.21;100375.56;4916082;29;20059;-59
2021/10/30 10:39:03;;;;;;;8.18;5.50;;;;;;;19.45;47.53;100385.88;4900372;29;20002;-59
2021/10/30 10:41:38;;;;;;;9.07;5.70;;;;;;;19.44;47.04;100374.47;4933021;29;20487;-59
2021/10/30 10:44:11;;;;;;;8.43;5.55;;;;;;;19.89;45.99;100370.81;4933197;29;20575;-56
2021/10/30 10:46:58;;;;;;;8.27;5.13;;;;;;;20.60;44.26;100367.25;4934068;29;20580;-55
2021/10/30 10:52:17;;;;;;;13.23;6.20;;;;;;;21.10;42.96;100366.53;4934411;29;20435;-60
2021/10/30 10:55:06;;;;;;;6.82;5.45;;;;;;;21.07;42.38;100382.63;4927284;29;20047;-57
2021/10/30 10:57:32;;;;;;;6.72;5.13;;;;;;;20.83;43.12;100361.28;4908376;29;20055;-56
2021/10/30 11:00:08;;;;;;;7.43;5.53;;;;;;;21.16;42.89;100360.03;4920303;29;20062;-54
2021/10/30 11:02:36;;;;;;;8.02;5.50;;;;;;;21.48;42.10;100356.06;4913775;29;20057;-59
2021/10/30 11:05:07;;;;;;;12.98;5.60;;;;;;;21.71;41.23;100352.66;4932746;29;20059;-61
2021/10/30 11:07:53;;;;;;;7.88;5.68;;;;;;;21.82;41.04;100354.56;4932778;29;20044;-59
2021/10/30 11:10:26;;;;;;;7.13;5.25;;;;;;;21.56;41.55;100359.03;4886137;29;20051;-58
2021/10/30 11:13:01;;;;;;;5.95;4.82;;;;;;;21.40;41.30;100353.09;4932707;29;20098;-58
2021/10/30 11:15:48;;;;;;;8.55;7.05;;;;;;;21.16;41.96;100346.81;4932644;29;20590;-58
2021/10/30 11:18:30;;;;;;;6.53;5.05;;;;;;;20.96;42.01;100337.53;4929111;29;20059;-56
2021/10/30 11:21:13;;;;;;;6.43;5.18;;;;;;;20.60;42.86;100351.38;4900502;29;20476;-58
2021/10/30 11:23:50;;;;;;;8.25;5.63;;;;;;;20.46;43.07;100346.16;4925544;29;20035;-58
2021/10/30 11:26:22;;;;;;;8.88;5.53;;;;;;;20.34;43.30;100341.66;4912729;29;20091;-59
2021/10/30 11:28:48;;;;;;;9.57;5.90;;;;;;;20.37;43.36;100349.38;4926783;29;20425;-60
2021/10/30 11:31:21;;;;;;;9.57;5.97;;;;;;;20.27;43.49;100336.72;4931023;29;20048;-58